Time,TemperatureF,DewpointF,PressureIn,WindDirection,WindDirectionDegrees,WindSpeedMPH,WindSpeedGustMPH,Humidity,HourlyPrecipIn,Conditions,Clouds,dailyrainin,SoftwareType,DateUTC
2013-07-20 00:01:00,72.7,69.3,29.89,South,185,0.0,0.0,89,0.00,,,0.00,VWS V14.01,2013-07-20 04:01:00,
2013-07-20 00:02:00,72.7,69.3,29.89,South,185,0.0,0.0,89,0.00,,,0.00,VWS V14.01,2013-07-20 04:02:00,
2013-07-20 00:07:00,72.6,69.2,29.89,South,185,0.0,0.0,89,0.00,,,0.00,VWS V14.01,2013-07-20 04:07:00,
2013-07-20 00:12:00,72.5,69.1,29.90,South,185,0.0,0.0,89,0.00,,,0.00,VWS V14.01,2013-07-20 04:12:00,
2013-07-20 00:17:00,72.4,69.0,29.91,South,185,0.0,0.0,89,0.00,,,0.00,VWS V14.01,2013-07-20 04:17:00,
2013-07-20 00:22:00,72.1,68.7,29.90,South,185,0.0,0.0,89,0.00,,,0.00,VWS V14.01,2013-07-20 04:22:00,
2013-07-20 00:27:00,72.0,68.9,29.90,South,185,0.0,0.0,90,0.00,,,0.00,VWS V14.01,2013-07-20 04:27:00,
2013-07-20 00:33:00,71.9,68.8,29.91,South,185,0.0,0.0,90,0.00,,,0.00,VWS V14.01,2013-07-20 04:33:00,
2013-07-20 00:38:00,71.8,68.7,29.91,South,185,0.0,0.0,90,0.00,,,0.00,VWS V14.01,2013-07-20 04:38:00,
2013-07-20 00:43:00,71.7,68.6,29.91,South,185,0.0,0.0,90,0.00,,,0.00,VWS V14.01,2013-07-20 04:43:00,
2013-07-20 00:48:00,71.7,68.9,29.91,South,185,2.0,2.0,91,0.00,,,0.00,VWS V14.01,2013-07-20 04:48:00,
2013-07-20 00:53:00,71.7,68.9,29.91,South,185,0.0,3.0,91,0.00,,,0.00,VWS V14.01,2013-07-20 04:53:00,
2013-07-20 00:58:00,71.7,68.9,29.91,South,185,2.0,3.0,91,0.00,,,0.00,VWS V14.01,2013-07-20 04:58:00,
2013-07-20 01:03:00,71.8,69.0,29.91,South,185,0.0,0.0,91,0.00,,,0.00,VWS V14.01,2013-07-20 05:03:00,
2013-07-20 01:08:00,71.8,69.0,29.91,South,185,0.0,2.0,91,0.00,,,0.00,VWS V14.01,2013-07-20 05:08:00,
2013-07-20 01:13:00,71.8,69.0,29.92,South,185,0.0,2.0,91,0.00,,,0.00,VWS V14.01,2013-07-20 05:13:00,
2013-07-20 01:18:00,71.8,69.0,29.91,South,185,0.0,2.0,91,0.00,,,0.00,VWS V14.01,2013-07-20 05:18:00,
2013-07-20 01:24:00,71.8,69.0,29.91,South,185,2.0,2.0,91,0.00,,,0.00,VWS V14.01,2013-07-20 05:24:00,
2013-07-20 01:29:00,71.8,69.0,29.91,South,185,0.0,4.0,91,0.00,,,0.00,VWS V14.01,2013-07-20 05:29:00,
2013-07-20 01:34:00,71.8,69.3,29.91,South,185,0.0,2.0,92,0.00,,,0.00,VWS V14.01,2013-07-20 05:34:00,
2013-07-20 01:39:00,71.8,69.3,29.92,South,185,0.0,3.0,92,0.00,,,0.00,VWS V14.01,2013-07-20 05:39:00,
2013-07-20 01:44:00,71.8,69.3,29.91,South,185,2.0,3.0,92,0.00,,,0.00,VWS V14.01,2013-07-20 05:44:00,
2013-07-20 01:49:00,71.8,69.3,29.91,South,185,0.0,3.0,92,0.00,,,0.00,VWS V14.01,2013-07-20 05:49:00,
2013-07-20 01:54:00,71.8,69.3,29.91,South,185,0.0,3.0,92,0.00,,,0.00,VWS V14.01,2013-07-20 05:54:00,
2013-07-20 01:59:00,71.7,69.3,29.91,South,185,0.0,0.0,92,0.00,,,0.00,VWS V14.01,2013-07-20 05:59:00,
2013-07-20 02:04:00,71.7,69.3,29.91,South,185,1.0,5.0,92,0.00,,,0.00,VWS V14.01,2013-07-20 06:04:00,
2013-07-20 02:10:00,71.7,69.3,29.91,South,185,2.0,5.0,92,0.00,,,0.00,VWS V14.01,2013-07-20 06:10:00,
2013-07-20 02:15:00,71.7,69.3,29.90,South,174,2.0,6.0,92,0.00,,,0.00,VWS V14.01,2013-07-20 06:15:00,
2013-07-20 02:20:00,71.6,69.2,29.90,South,190,3.0,6.0,92,0.00,,,0.00,VWS V14.01,2013-07-20 06:20:00,
2013-07-20 02:25:00,71.5,69.1,29.90,SSE,150,1.0,7.0,92,0.00,,,0.00,VWS V14.01,2013-07-20 06:25:00,
2013-07-20 02:30:00,71.5,69.1,29.89,SSE,157,3.0,7.0,92,0.00,,,0.00,VWS V14.01,2013-07-20 06:30:00,
2013-07-20 02:35:00,71.4,69.0,29.89,South,176,1.0,7.0,92,0.00,,,0.00,VWS V14.01,2013-07-20 06:35:00,
2013-07-20 02:40:00,71.3,68.9,29.89,SSE,147,2.0,7.0,92,0.00,,,0.00,VWS V14.01,2013-07-20 06:40:00,
2013-07-20 02:45:00,71.2,68.8,29.89,South,171,0.0,7.0,92,0.00,,,0.00,VWS V14.01,2013-07-20 06:45:00,
2013-07-20 02:50:00,71.1,68.7,29.88,SSE,148,3.0,7.0,92,0.00,,,0.00,VWS V14.01,2013-07-20 06:50:00,
2013-07-20 02:55:00,71.1,68.7,29.88,South,179,5.0,10.0,92,0.00,,,0.00,VWS V14.01,2013-07-20 06:55:00,
2013-07-20 03:00:00,71.1,68.7,29.88,SSW,194,0.0,4.0,92,0.00,,,0.00,VWS V14.01,2013-07-20 07:00:00,
2013-07-20 03:05:00,71.2,68.4,29.87,SSE,166,2.0,9.0,91,0.00,,,0.00,VWS V14.01,2013-07-20 07:05:00,
2013-07-20 03:11:00,71.2,68.4,29.88,SSW,195,6.0,9.0,91,0.00,,,0.00,VWS V14.01,2013-07-20 07:11:00,
2013-07-20 03:16:00,71.3,68.5,29.88,South,181,0.0,9.0,91,0.00,,,0.00,VWS V14.01,2013-07-20 07:16:00,
2013-07-20 03:21:00,71.3,68.5,29.88,SSE,164,1.0,9.0,91,0.00,,,0.00,VWS V14.01,2013-07-20 07:21:00,
2013-07-20 03:26:00,71.4,68.6,29.88,South,176,3.0,9.0,91,0.00,,,0.00,VWS V14.01,2013-07-20 07:26:00,
2013-07-20 03:31:00,71.4,68.6,29.88,SSE,163,3.0,7.0,91,0.00,,,0.00,VWS V14.01,2013-07-20 07:31:00,
2013-07-20 03:36:00,71.5,68.7,29.88,South,182,2.0,7.0,91,0.00,,,0.00,VWS V14.01,2013-07-20 07:36:00,
2013-07-20 03:41:00,71.5,68.7,29.88,South,182,0.0,7.0,91,0.00,,,0.00,VWS V14.01,2013-07-20 07:41:00,
2013-07-20 03:46:00,71.5,68.7,29.88,South,172,4.0,8.0,91,0.00,,,0.00,VWS V14.01,2013-07-20 07:46:00,
2013-07-20 03:51:00,71.6,68.8,29.88,South,172,0.0,8.0,91,0.00,,,0.00,VWS V14.01,2013-07-20 07:51:00,
2013-07-20 03:56:00,71.5,68.7,29.88,South,172,0.0,8.0,91,0.00,,,0.00,VWS V14.01,2013-07-20 07:56:00,
2013-07-20 04:02:00,71.6,68.8,29.88,South,172,2.0,3.0,91,0.00,,,0.00,VWS V14.01,2013-07-20 08:02:00,
2013-07-20 04:07:00,71.6,68.8,29.89,South,172,0.0,4.0,91,0.00,,,0.00,VWS V14.01,2013-07-20 08:07:00,
2013-07-20 04:12:00,71.6,68.8,29.89,South,172,0.0,4.0,91,0.00,,,0.00,VWS V14.01,2013-07-20 08:12:00,
2013-07-20 04:17:00,71.7,68.9,29.89,South,172,0.0,4.0,91,0.00,,,0.00,VWS V14.01,2013-07-20 08:17:00,
2013-07-20 04:22:00,71.7,68.9,29.89,South,172,0.0,4.0,91,0.00,,,0.00,VWS V14.01,2013-07-20 08:22:00,
2013-07-20 04:27:00,71.7,68.9,29.89,South,187,4.0,5.0,91,0.00,,,0.00,VWS V14.01,2013-07-20 08:27:00,
2013-07-20 04:32:00,71.7,68.9,29.89,SSW,203,0.0,4.0,91,0.00,,,0.00,VWS V14.01,2013-07-20 08:32:00,
2013-07-20 04:38:00,71.7,68.9,29.89,SSW,203,0.0,4.0,91,0.00,,,0.00,VWS V14.01,2013-07-20 08:38:00,
2013-07-20 04:43:00,71.7,68.6,29.89,South,176,0.0,4.0,90,0.00,,,0.00,VWS V14.01,2013-07-20 08:43:00,
2013-07-20 04:48:00,71.7,68.9,29.89,South,176,0.0,4.0,91,0.00,,,0.00,VWS V14.01,2013-07-20 08:48:00,
2013-07-20 04:53:00,71.7,68.9,29.89,SE,146,2.0,4.0,91,0.00,,,0.00,VWS V14.01,2013-07-20 08:53:00,
2013-07-20 04:58:00,71.7,68.9,29.89,SSE,166,4.0,4.0,91,0.00,,,0.00,VWS V14.01,2013-07-20 08:58:00,
2013-07-20 05:03:00,71.7,68.9,29.89,SSE,166,0.0,0.0,91,0.00,,,0.00,VWS V14.01,2013-07-20 09:03:00,
2013-07-20 05:08:00,71.6,68.8,29.90,SSE,166,0.0,3.0,91,0.00,,,0.00,VWS V14.01,2013-07-20 09:08:00,
2013-07-20 05:13:00,71.6,68.8,29.89,SSE,166,3.0,3.0,91,0.00,,,0.00,VWS V14.01,2013-07-20 09:13:00,
2013-07-20 05:18:00,71.5,68.7,29.89,SSE,166,0.0,3.0,91,0.00,,,0.00,VWS V14.01,2013-07-20 09:18:00,
2013-07-20 05:23:00,71.6,68.8,29.89,SSE,166,2.0,4.0,91,0.00,,,0.00,VWS V14.01,2013-07-20 09:23:00,
2013-07-20 05:28:00,71.6,68.8,29.89,SSE,166,0.0,4.0,91,0.00,,,0.00,VWS V14.01,2013-07-20 09:28:00,
2013-07-20 05:33:00,71.6,68.8,29.89,SSE,147,0.0,4.0,91,0.00,,,0.00,VWS V14.01,2013-07-20 09:33:00,
2013-07-20 05:38:00,71.7,68.9,29.89,South,183,0.0,5.0,91,0.00,,,0.00,VWS V14.01,2013-07-20 09:38:00,
2013-07-20 05:43:00,71.7,68.9,29.89,SSE,163,0.0,5.0,91,0.00,,,0.00,VWS V14.01,2013-07-20 09:43:00,
2013-07-20 05:49:00,71.7,68.9,29.89,South,176,2.0,5.0,91,0.00,,,0.00,VWS V14.01,2013-07-20 09:49:00,
2013-07-20 05:54:00,71.8,69.0,29.89,South,176,3.0,5.0,91,0.00,,,0.00,VWS V14.01,2013-07-20 09:54:00,
2013-07-20 05:59:00,71.8,69.0,29.89,South,185,0.0,5.0,91,0.00,,,0.00,VWS V14.01,2013-07-20 09:59:00,
2013-07-20 06:04:00,71.9,69.1,29.89,South,186,3.0,4.0,91,0.00,,,0.00,VWS V14.01,2013-07-20 10:04:00,
2013-07-20 06:09:00,71.9,69.1,29.88,South,186,2.0,4.0,91,0.00,,,0.00,VWS V14.01,2013-07-20 10:09:00,
2013-07-20 06:14:00,71.9,69.1,29.89,SSE,167,0.0,4.0,91,0.00,,,0.00,VWS V14.01,2013-07-20 10:14:00,
2013-07-20 06:19:00,71.9,69.1,29.89,SSE,150,3.0,4.0,91,0.00,,,0.00,VWS V14.01,2013-07-20 10:19:00,
2013-07-20 06:24:00,71.8,69.0,29.89,SSE,167,3.0,5.0,91,0.00,,,0.00,VWS V14.01,2013-07-20 10:24:00,
2013-07-20 06:29:00,71.7,68.9,29.89,SSW,198,0.0,0.0,91,0.00,,,0.00,VWS V14.01,2013-07-20 10:29:00,
2013-07-20 06:35:00,71.7,68.9,29.89,SSW,198,0.0,3.0,91,0.00,,,0.00,VWS V14.01,2013-07-20 10:35:00,
2013-07-20 06:40:00,71.7,68.9,29.89,SSW,198,0.0,3.0,91,0.00,,,0.00,VWS V14.01,2013-07-20 10:40:00,
2013-07-20 06:45:00,71.6,68.8,29.89,SSW,198,2.0,4.0,91,0.00,,,0.00,VWS V14.01,2013-07-20 10:45:00,
2013-07-20 06:50:00,71.6,69.2,29.89,SSW,198,0.0,4.0,92,0.00,,,0.00,VWS V14.01,2013-07-20 10:50:00,
2013-07-20 06:55:00,71.6,69.2,29.89,SSW,198,2.0,4.0,92,0.00,,,0.00,VWS V14.01,2013-07-20 10:55:00,
2013-07-20 07:00:00,71.6,69.2,29.90,SSW,198,0.0,0.0,92,0.00,,,0.00,VWS V14.01,2013-07-20 11:00:00,
2013-07-20 07:05:00,71.5,69.1,29.90,SSW,198,0.0,3.0,92,0.00,,,0.00,VWS V14.01,2013-07-20 11:05:00,
2013-07-20 07:10:00,71.6,69.2,29.90,SSW,198,2.0,3.0,92,0.00,,,0.00,VWS V14.01,2013-07-20 11:10:00,
2013-07-20 07:15:00,71.6,69.2,29.91,SSW,198,0.0,3.0,92,0.00,,,0.00,VWS V14.01,2013-07-20 11:15:00,
2013-07-20 07:20:00,71.7,69.3,29.91,SSW,198,0.0,4.0,92,0.00,,,0.00,VWS V14.01,2013-07-20 11:20:00,
2013-07-20 07:25:00,71.9,69.4,29.91,SSW,198,0.0,4.0,92,0.00,,,0.00,VWS V14.01,2013-07-20 11:25:00,
2013-07-20 07:31:00,72.0,69.6,29.91,SSW,198,2.0,2.0,92,0.00,,,0.00,VWS V14.01,2013-07-20 11:31:00,
2013-07-20 07:36:00,72.1,69.7,29.91,SSW,198,1.0,4.0,92,0.00,,,0.00,VWS V14.01,2013-07-20 11:36:00,
2013-07-20 07:41:00,72.1,69.7,29.91,SSW,198,1.0,4.0,92,0.00,,,0.00,VWS V14.01,2013-07-20 11:41:00,
2013-07-20 07:46:00,72.2,69.8,29.92,SSW,198,0.0,5.0,92,0.00,,,0.00,VWS V14.01,2013-07-20 11:46:00,
2013-07-20 07:51:00,72.3,69.8,29.91,SSW,198,2.0,5.0,92,0.00,,,0.00,VWS V14.01,2013-07-20 11:51:00,
2013-07-20 07:56:00,72.4,69.9,29.91,SSW,198,2.0,5.0,92,0.00,,,0.00,VWS V14.01,2013-07-20 11:56:00,
2013-07-20 08:01:00,72.5,70.1,29.91,SSW,198,3.0,5.0,92,0.00,,,0.00,VWS V14.01,2013-07-20 12:01:00,
2013-07-20 08:06:00,72.7,70.2,29.90,SSW,198,3.0,5.0,92,0.00,,,0.00,VWS V14.01,2013-07-20 12:06:00,
2013-07-20 08:11:00,72.8,70.3,29.91,SSW,198,4.0,5.0,92,0.00,,,0.00,VWS V14.01,2013-07-20 12:11:00,
2013-07-20 08:16:00,73.0,70.5,29.90,SSW,194,2.0,7.0,92,0.00,,,0.00,VWS V14.01,2013-07-20 12:16:00,
2013-07-20 08:21:00,73.3,70.8,29.90,South,177,1.0,9.0,92,0.00,,,0.00,VWS V14.01,2013-07-20 12:21:00,
2013-07-20 08:26:00,73.6,70.8,29.91,SSE,164,0.0,9.0,91,0.00,,,0.00,VWS V14.01,2013-07-20 12:26:00,
2013-07-20 08:31:00,73.9,71.1,29.90,SSE,155,5.0,9.0,91,0.00,,,0.00,VWS V14.01,2013-07-20 12:31:00,
2013-07-20 08:37:00,74.1,71.0,29.91,South,188,3.0,10.0,90,0.00,,,0.00,VWS V14.01,2013-07-20 12:37:00,
2013-07-20 08:42:00,74.4,71.3,29.91,SW,227,3.0,10.0,90,0.00,,,0.00,VWS V14.01,2013-07-20 12:42:00,
2013-07-20 08:47:00,74.5,71.1,29.91,South,181,1.0,10.0,89,0.00,,,0.00,VWS V14.01,2013-07-20 12:47:00,
2013-07-20 08:52:00,74.5,71.1,29.91,South,181,0.0,10.0,89,0.00,,,0.00,VWS V14.01,2013-07-20 12:52:00,
2013-07-20 08:57:00,74.6,71.2,29.91,South,181,0.0,10.0,89,0.00,,,0.00,VWS V14.01,2013-07-20 12:57:00,
2013-07-20 09:02:00,74.6,71.5,29.92,South,181,0.0,1.0,90,0.00,,,0.00,VWS V14.01,2013-07-20 13:02:00,
2013-07-20 09:07:00,74.6,71.5,29.92,South,181,0.0,1.0,90,0.00,,,0.00,VWS V14.01,2013-07-20 13:07:00,
2013-07-20 09:12:00,74.6,71.5,29.92,South,181,1.0,1.0,90,0.00,,,0.00,VWS V14.01,2013-07-20 13:12:00,
2013-07-20 09:18:00,74.5,71.4,29.92,South,181,0.0,2.0,90,0.00,,,0.00,VWS V14.01,2013-07-20 13:18:00,
2013-07-20 09:23:00,74.4,71.3,29.92,South,181,0.0,3.0,90,0.00,,,0.00,VWS V14.01,2013-07-20 13:23:00,
2013-07-20 09:28:00,74.3,71.2,29.92,SSW,209,0.0,5.0,90,0.00,,,0.00,VWS V14.01,2013-07-20 13:28:00,
2013-07-20 09:33:00,74.3,71.2,29.92,SSW,206,0.0,0.0,90,0.00,,,0.00,VWS V14.01,2013-07-20 13:33:00,
2013-07-20 09:38:00,74.2,71.1,29.92,SSW,194,0.0,4.0,90,0.00,,,0.00,VWS V14.01,2013-07-20 13:38:00,
2013-07-20 09:43:00,74.2,71.1,29.91,SSW,194,0.0,4.0,90,0.00,,,0.00,VWS V14.01,2013-07-20 13:43:00,
2013-07-20 09:48:00,74.2,71.1,29.91,SSW,194,0.0,4.0,90,0.00,,,0.00,VWS V14.01,2013-07-20 13:48:00,
2013-07-20 09:53:00,74.3,71.2,29.91,South,189,3.0,5.0,90,0.00,,,0.00,VWS V14.01,2013-07-20 13:53:00,
2013-07-20 09:58:00,74.3,71.2,29.91,SSE,152,4.0,5.0,90,0.00,,,0.00,VWS V14.01,2013-07-20 13:58:00,
2013-07-20 10:03:00,74.3,71.2,29.91,South,183,1.0,4.0,90,0.00,,,0.00,VWS V14.01,2013-07-20 14:03:00,
2013-07-20 10:08:00,74.5,71.4,29.90,SE,141,0.0,4.0,90,0.00,,,0.00,VWS V14.01,2013-07-20 14:08:00,
2013-07-20 10:13:00,74.8,71.7,29.91,SSW,192,3.0,5.0,90,0.00,,,0.00,VWS V14.01,2013-07-20 14:13:00,
2013-07-20 10:19:00,75.0,71.9,29.91,SSW,192,3.0,6.0,90,0.00,,,0.00,VWS V14.01,2013-07-20 14:19:00,
2013-07-20 10:24:00,75.1,71.6,29.92,South,190,4.0,6.0,89,0.00,,,0.00,VWS V14.01,2013-07-20 14:24:00,
2013-07-20 10:29:00,75.2,71.7,29.92,SSW,194,1.0,6.0,89,0.00,,,0.00,VWS V14.01,2013-07-20 14:29:00,
2013-07-20 10:34:00,75.3,71.8,29.92,SSW,194,0.0,5.0,89,0.00,,,0.00,VWS V14.01,2013-07-20 14:34:00,
2013-07-20 10:39:00,75.4,71.9,29.92,SSW,194,0.0,5.0,89,0.00,,,0.00,VWS V14.01,2013-07-20 14:39:00,
2013-07-20 10:44:00,75.6,72.1,29.92,SSW,194,0.0,5.0,89,0.00,,,0.00,VWS V14.01,2013-07-20 14:44:00,
2013-07-20 10:49:00,75.7,72.2,29.91,SSW,194,0.0,5.0,89,0.00,,,0.00,VWS V14.01,2013-07-20 14:49:00,
2013-07-20 10:54:00,75.8,72.0,29.91,SW,219,0.0,5.0,88,0.00,,,0.00,VWS V14.01,2013-07-20 14:54:00,
2013-07-20 10:59:00,75.7,71.9,29.91,SSE,150,3.0,3.0,88,0.00,,,0.00,VWS V14.01,2013-07-20 14:59:00,
2013-07-20 11:04:00,75.7,71.9,29.91,SW,221,6.0,7.0,88,0.00,,,0.00,VWS V14.01,2013-07-20 15:04:00,
2013-07-20 11:10:00,75.6,71.8,29.91,South,182,0.0,7.0,88,0.00,,,0.00,VWS V14.01,2013-07-20 15:10:00,
2013-07-20 11:15:00,75.6,72.1,29.92,WNW,294,4.0,7.0,89,0.01,,,0.01,VWS V14.01,2013-07-20 15:15:00,
2013-07-20 11:20:00,73.4,69.0,29.93,WNW,292,6.0,21.0,86,0.22,,,0.22,VWS V14.01,2013-07-20 15:20:00,
2013-07-20 11:25:00,71.6,68.2,29.91,WNW,299,0.0,21.0,89,0.33,,,0.33,VWS V14.01,2013-07-20 15:25:00,
2013-07-20 11:30:00,70.9,67.8,29.90,ENE,68,0.0,1.0,90,0.33,,,0.33,VWS V14.01,2013-07-20 15:30:00,
2013-07-20 11:35:00,70.4,67.7,29.90,ENE,74,1.0,1.0,91,0.33,,,0.33,VWS V14.01,2013-07-20 15:35:00,
2013-07-20 11:40:00,70.3,67.9,29.91,ENE,74,0.0,2.0,92,0.33,,,0.33,VWS V14.01,2013-07-20 15:40:00,
2013-07-20 11:45:00,70.1,67.7,29.91,ENE,74,0.0,2.0,92,0.33,,,0.33,VWS V14.01,2013-07-20 15:45:00,
2013-07-20 11:50:00,70.2,68.1,29.91,SSE,167,0.0,3.0,93,0.33,,,0.33,VWS V14.01,2013-07-20 15:50:00,
2013-07-20 11:55:00,70.3,68.2,29.92,SSE,167,0.0,3.0,93,0.33,,,0.33,VWS V14.01,2013-07-20 15:55:00,
2013-07-20 12:00:00,70.5,68.4,29.92,SSE,167,0.0,0.0,93,0.33,,,0.33,VWS V14.01,2013-07-20 16:00:00,
2013-07-20 12:05:00,70.7,68.6,29.93,SSE,167,0.0,0.0,93,0.33,,,0.33,VWS V14.01,2013-07-20 16:05:00,
2013-07-20 12:10:00,70.8,69.0,29.93,SSE,159,2.0,2.0,94,0.33,,,0.33,VWS V14.01,2013-07-20 16:10:00,
2013-07-20 12:15:00,70.8,68.7,29.92,SSE,148,0.0,3.0,93,0.34,,,0.34,VWS V14.01,2013-07-20 16:15:00,
2013-07-20 12:20:00,70.8,68.7,29.92,SSE,149,0.0,3.0,93,0.34,,,0.34,VWS V14.01,2013-07-20 16:20:00,
2013-07-20 12:25:00,70.8,69.0,29.93,SSE,150,2.0,4.0,94,0.34,,,0.34,VWS V14.01,2013-07-20 16:25:00,
2013-07-20 12:30:00,70.8,69.0,29.92,South,182,2.0,4.0,94,0.01,,,0.34,VWS V14.01,2013-07-20 16:30:00,
2013-07-20 12:35:00,70.7,68.9,29.92,SSW,204,3.0,5.0,94,0.01,,,0.34,VWS V14.01,2013-07-20 16:35:00,
2013-07-20 12:40:00,70.7,68.9,29.92,SE,134,1.0,6.0,94,0.01,,,0.34,VWS V14.01,2013-07-20 16:40:00,
2013-07-20 12:45:00,70.9,69.1,29.91,SSE,153,8.0,8.0,94,0.01,,,0.34,VWS V14.01,2013-07-20 16:45:00,
2013-07-20 12:50:00,70.9,69.1,29.91,South,190,2.0,9.0,94,0.01,,,0.34,VWS V14.01,2013-07-20 16:50:00,
2013-07-20 12:55:00,71.0,69.2,29.90,SSE,155,2.0,9.0,94,0.01,,,0.34,VWS V14.01,2013-07-20 16:55:00,
2013-07-20 13:00:00,71.0,69.2,29.90,South,174,5.0,6.0,94,0.01,,,0.34,VWS V14.01,2013-07-20 17:00:00,
2013-07-20 13:05:00,70.9,68.8,29.90,SE,129,3.0,7.0,93,0.01,,,0.34,VWS V14.01,2013-07-20 17:05:00,
2013-07-20 13:10:00,70.9,68.8,29.90,SE,140,3.0,8.0,93,0.01,,,0.34,VWS V14.01,2013-07-20 17:10:00,
2013-07-20 13:15:00,70.7,68.6,29.91,SSE,152,5.0,10.0,93,0.01,,,0.34,VWS V14.01,2013-07-20 17:15:00,
2013-07-20 13:20:00,70.2,68.1,29.91,South,180,5.0,10.0,93,0.01,,,0.34,VWS V14.01,2013-07-20 17:20:00,
2013-07-20 13:25:00,69.8,67.7,29.91,ESE,116,2.0,10.0,93,0.01,,,0.34,VWS V14.01,2013-07-20 17:25:00,
2013-07-20 13:30:00,69.6,67.5,29.91,SSE,157,3.0,7.0,93,0.00,,,0.34,VWS V14.01,2013-07-20 17:30:00,
2013-07-20 13:35:00,69.5,67.4,29.90,SSE,147,0.0,7.0,93,0.00,,,0.34,VWS V14.01,2013-07-20 17:35:00,
2013-07-20 13:40:00,69.4,67.3,29.91,South,170,1.0,8.0,93,0.00,,,0.34,VWS V14.01,2013-07-20 17:40:00,
2013-07-20 13:45:00,69.4,67.3,29.91,SSE,154,4.0,9.0,93,0.00,,,0.34,VWS V14.01,2013-07-20 17:45:00,
2013-07-20 13:50:00,69.5,67.7,29.91,South,171,0.0,9.0,94,0.00,,,0.34,VWS V14.01,2013-07-20 17:50:00,
2013-07-20 13:55:00,69.5,67.7,29.91,South,183,1.0,9.0,94,0.00,,,0.34,VWS V14.01,2013-07-20 17:55:00,
2013-07-20 14:00:00,69.6,67.8,29.91,South,183,0.0,0.0,94,0.00,,,0.34,VWS V14.01,2013-07-20 18:00:00,
2013-07-20 14:05:00,69.7,67.9,29.91,South,183,0.0,3.0,94,0.00,,,0.34,VWS V14.01,2013-07-20 18:05:00,
2013-07-20 14:10:00,69.6,67.8,29.91,South,183,1.0,5.0,94,0.01,,,0.35,VWS V14.01,2013-07-20 18:10:00,
2013-07-20 14:15:00,69.6,67.8,29.90,SSE,164,3.0,6.0,94,0.02,,,0.36,VWS V14.01,2013-07-20 18:15:00,
2013-07-20 14:21:00,69.6,67.8,29.90,South,188,3.0,6.0,94,0.02,,,0.36,VWS V14.01,2013-07-20 18:21:00,
2013-07-20 14:26:00,69.7,67.9,29.90,SSE,157,6.0,8.0,94,0.02,,,0.36,VWS V14.01,2013-07-20 18:26:00,
2013-07-20 14:31:00,69.9,68.1,29.89,SSE,148,6.0,6.0,94,0.02,,,0.36,VWS V14.01,2013-07-20 18:31:00,
2013-07-20 14:36:00,70.0,68.2,29.89,South,185,3.0,10.0,94,0.02,,,0.36,VWS V14.01,2013-07-20 18:36:00,
2013-07-20 14:41:00,70.2,68.4,29.89,SSE,159,4.0,11.0,94,0.02,,,0.36,VWS V14.01,2013-07-20 18:41:00,
2013-07-20 14:46:00,70.4,68.6,29.89,South,184,4.0,11.0,94,0.02,,,0.36,VWS V14.01,2013-07-20 18:46:00,
2013-07-20 14:52:00,70.3,68.2,29.89,SE,142,6.0,11.0,93,0.02,,,0.36,VWS V14.01,2013-07-20 18:52:00,
2013-07-20 14:57:00,70.3,68.2,29.90,South,188,3.0,11.0,93,0.02,,,0.36,VWS V14.01,2013-07-20 18:57:00,
2013-07-20 15:02:00,70.3,68.2,29.90,SSE,167,0.0,5.0,93,0.02,,,0.36,VWS V14.01,2013-07-20 19:02:00,
2013-07-20 15:07:00,70.3,68.2,29.89,South,178,2.0,6.0,93,0.03,,,0.37,VWS V14.01,2013-07-20 19:07:00,
2013-07-20 15:12:00,70.3,68.2,29.89,SSE,150,9.0,9.0,93,0.04,,,0.38,VWS V14.01,2013-07-20 19:12:00,
2013-07-20 15:17:00,70.3,68.2,29.87,SE,135,3.0,9.0,93,0.05,,,0.39,VWS V14.01,2013-07-20 19:17:00,
2013-07-20 15:22:00,70.3,68.2,29.87,South,180,1.0,9.0,93,0.06,,,0.40,VWS V14.01,2013-07-20 19:22:00,
2013-07-20 15:28:00,70.2,68.1,29.86,SSE,154,4.0,9.0,93,0.07,,,0.41,VWS V14.01,2013-07-20 19:28:00,
2013-07-20 15:33:00,70.1,68.3,29.87,SSW,207,4.0,9.0,94,0.05,,,0.41,VWS V14.01,2013-07-20 19:33:00,
2013-07-20 15:38:00,70.1,68.3,29.86,South,176,6.0,10.0,94,0.06,,,0.42,VWS V14.01,2013-07-20 19:38:00,
2013-07-20 15:43:00,70.2,68.4,29.86,SE,134,3.0,10.0,94,0.06,,,0.42,VWS V14.01,2013-07-20 19:43:00,
2013-07-20 15:49:00,70.3,68.5,29.86,South,180,3.0,10.0,94,0.06,,,0.42,VWS V14.01,2013-07-20 19:49:00,
2013-07-20 15:54:00,70.3,68.5,29.86,SSW,207,5.0,10.0,94,0.06,,,0.42,VWS V14.01,2013-07-20 19:54:00,
2013-07-20 15:59:00,70.3,68.2,29.86,SSW,206,3.0,3.0,93,0.06,,,0.42,VWS V14.01,2013-07-20 19:59:00,
2013-07-20 16:04:00,70.4,68.3,29.86,SSE,157,0.0,3.0,93,0.06,,,0.42,VWS V14.01,2013-07-20 20:04:00,
2013-07-20 16:09:00,70.5,68.4,29.86,SE,143,0.0,5.0,93,0.06,,,0.42,VWS V14.01,2013-07-20 20:09:00,
2013-07-20 16:14:00,70.6,68.5,29.86,SSE,148,0.0,5.0,93,0.06,,,0.42,VWS V14.01,2013-07-20 20:14:00,
2013-07-20 16:19:00,70.6,68.5,29.87,South,175,0.0,5.0,93,0.06,,,0.42,VWS V14.01,2013-07-20 20:19:00,
2013-07-20 16:25:00,70.6,68.5,29.86,South,175,1.0,5.0,93,0.06,,,0.42,VWS V14.01,2013-07-20 20:25:00,
2013-07-20 16:30:00,70.6,68.5,29.86,South,186,2.0,3.0,93,0.01,,,0.42,VWS V14.01,2013-07-20 20:30:00,
2013-07-20 16:35:00,70.6,68.5,29.86,South,186,2.0,4.0,93,0.01,,,0.42,VWS V14.01,2013-07-20 20:35:00,
2013-07-20 16:40:00,70.5,68.4,29.85,SSW,195,2.0,8.0,93,0.01,,,0.42,VWS V14.01,2013-07-20 20:40:00,
2013-07-20 16:45:00,70.5,68.4,29.85,South,172,3.0,8.0,93,0.01,,,0.42,VWS V14.01,2013-07-20 20:45:00,
2013-07-20 16:50:00,70.5,68.4,29.85,SSE,167,5.0,8.0,93,0.01,,,0.42,VWS V14.01,2013-07-20 20:50:00,
2013-07-20 16:55:00,70.5,68.4,29.85,SSW,200,0.0,8.0,93,0.01,,,0.42,VWS V14.01,2013-07-20 20:55:00,
2013-07-20 17:00:00,70.5,68.4,29.85,SSE,165,0.0,0.0,93,0.01,,,0.43,VWS V14.01,2013-07-20 21:00:00,
2013-07-20 17:05:00,70.6,68.5,29.85,WNW,300,0.0,4.0,93,0.01,,,0.43,VWS V14.01,2013-07-20 21:05:00,
2013-07-20 17:10:00,70.8,68.7,29.84,SE,144,0.0,4.0,93,0.01,,,0.43,VWS V14.01,2013-07-20 21:10:00,
2013-07-20 17:16:00,70.8,68.7,29.85,SE,144,0.0,4.0,93,0.01,,,0.43,VWS V14.01,2013-07-20 21:16:00,
2013-07-20 17:21:00,70.8,68.7,29.86,SE,144,0.0,4.0,93,0.01,,,0.43,VWS V14.01,2013-07-20 21:21:00,
2013-07-20 17:26:00,70.8,68.4,29.86,South,178,0.0,4.0,92,0.01,,,0.43,VWS V14.01,2013-07-20 21:26:00,
2013-07-20 17:31:00,71.0,68.6,29.86,South,178,0.0,0.0,92,0.01,,,0.43,VWS V14.01,2013-07-20 21:31:00,
2013-07-20 17:36:00,71.0,68.6,29.87,South,178,0.0,0.0,92,0.01,,,0.43,VWS V14.01,2013-07-20 21:36:00,
2013-07-20 17:41:00,71.2,68.8,29.87,South,178,0.0,2.0,92,0.01,,,0.43,VWS V14.01,2013-07-20 21:41:00,
2013-07-20 17:46:00,71.3,68.5,29.87,South,178,0.0,5.0,91,0.01,,,0.43,VWS V14.01,2013-07-20 21:46:00,
2013-07-20 17:52:00,71.3,68.2,29.88,South,178,0.0,5.0,90,0.01,,,0.43,VWS V14.01,2013-07-20 21:52:00,
2013-07-20 17:57:00,71.5,68.7,29.88,NW,304,4.0,5.0,91,0.01,,,0.43,VWS V14.01,2013-07-20 21:57:00,
2013-07-20 18:02:00,71.7,68.9,29.88,NW,304,1.0,2.0,91,0.00,,,0.43,VWS V14.01,2013-07-20 22:02:00,
2013-07-20 18:07:00,72.0,69.6,29.88,NNW,327,1.0,3.0,92,0.00,,,0.43,VWS V14.01,2013-07-20 22:07:00,
2013-07-20 18:13:00,72.0,69.2,29.88,WNW,292,4.0,5.0,91,0.00,,,0.43,VWS V14.01,2013-07-20 22:13:00,
2013-07-20 18:18:00,72.0,69.2,29.88,NNW,341,3.0,5.0,91,0.00,,,0.43,VWS V14.01,2013-07-20 22:18:00,
2013-07-20 18:23:00,71.9,68.8,29.87,NW,306,0.0,5.0,90,0.00,,,0.43,VWS V14.01,2013-07-20 22:23:00,
2013-07-20 18:28:00,71.9,68.8,29.87,NW,307,1.0,5.0,90,0.00,,,0.43,VWS V14.01,2013-07-20 22:28:00,
2013-07-20 18:33:00,71.9,68.8,29.87,NW,306,0.0,2.0,90,0.00,,,0.43,VWS V14.01,2013-07-20 22:33:00,
2013-07-20 18:38:00,72.1,69.0,29.87,NW,306,0.0,2.0,90,0.00,,,0.43,VWS V14.01,2013-07-20 22:38:00,
2013-07-20 18:43:00,72.4,69.6,29.87,NW,306,0.0,2.0,91,0.00,,,0.43,VWS V14.01,2013-07-20 22:43:00,
2013-07-20 18:48:00,72.3,69.2,29.88,NW,306,1.0,3.0,90,0.00,,,0.43,VWS V14.01,2013-07-20 22:48:00,
2013-07-20 18:54:00,72.3,69.2,29.88,NW,306,0.0,3.0,90,0.00,,,0.43,VWS V14.01,2013-07-20 22:54:00,
2013-07-20 18:59:00,72.3,68.9,29.88,NW,306,0.0,3.0,89,0.00,,,0.43,VWS V14.01,2013-07-20 22:59:00,
2013-07-20 19:04:00,72.4,69.3,29.88,NW,306,0.0,0.0,90,0.00,,,0.43,VWS V14.01,2013-07-20 23:04:00,
2013-07-20 19:09:00,72.4,69.3,29.89,NW,306,0.0,0.0,90,0.00,,,0.43,VWS V14.01,2013-07-20 23:09:00,
2013-07-20 19:14:00,72.4,69.0,29.88,NW,306,0.0,0.0,89,0.00,,,0.43,VWS V14.01,2013-07-20 23:14:00,
2013-07-20 19:19:00,72.4,69.0,29.89,NW,306,0.0,0.0,89,0.00,,,0.43,VWS V14.01,2013-07-20 23:19:00,
2013-07-20 19:25:00,72.4,69.3,29.89,NW,306,0.0,0.0,90,0.00,,,0.43,VWS V14.01,2013-07-20 23:25:00,
2013-07-20 19:30:00,72.5,69.4,29.89,NW,306,0.0,0.0,90,0.00,,,0.43,VWS V14.01,2013-07-20 23:30:00,
2013-07-20 19:35:00,72.5,69.4,29.89,NW,306,0.0,0.0,90,0.00,,,0.43,VWS V14.01,2013-07-20 23:35:00,
2013-07-20 19:40:00,72.4,69.3,29.90,NW,306,0.0,0.0,90,0.00,,,0.43,VWS V14.01,2013-07-20 23:40:00,
2013-07-20 19:45:00,72.4,69.6,29.90,NW,306,0.0,0.0,91,0.00,,,0.43,VWS V14.01,2013-07-20 23:45:00,
2013-07-20 19:51:00,72.2,69.4,29.90,NW,306,0.0,0.0,91,0.00,,,0.43,VWS V14.01,2013-07-20 23:51:00,
2013-07-20 19:56:00,72.2,69.4,29.90,NW,306,0.0,0.0,91,0.00,,,0.43,VWS V14.01,2013-07-20 23:56:00,
2013-07-20 20:01:00,72.1,69.3,29.90,NW,306,0.0,0.0,91,0.00,,,0.43,VWS V14.01,2013-07-21 00:01:00,
2013-07-20 20:06:00,72.0,69.2,29.90,NW,306,0.0,0.0,91,0.00,,,0.43,VWS V14.01,2013-07-21 00:06:00,
2013-07-20 20:12:00,71.8,69.0,29.90,NW,306,0.0,0.0,91,0.00,,,0.43,VWS V14.01,2013-07-21 00:12:00,
2013-07-20 20:17:00,71.5,68.4,29.90,NW,306,0.0,1.0,90,0.00,,,0.43,VWS V14.01,2013-07-21 00:17:00,
2013-07-20 20:22:00,71.2,68.4,29.90,NW,306,0.0,1.0,91,0.00,,,0.43,VWS V14.01,2013-07-21 00:22:00,
2013-07-20 20:27:00,71.0,68.2,29.89,NW,306,0.0,2.0,91,0.00,,,0.43,VWS V14.01,2013-07-21 00:27:00,
2013-07-20 20:33:00,70.7,67.9,29.89,NW,306,0.0,0.0,91,0.00,,,0.43,VWS V14.01,2013-07-21 00:33:00,
2013-07-20 20:38:00,70.5,67.8,29.89,NW,306,0.0,1.0,91,0.00,,,0.43,VWS V14.01,2013-07-21 00:38:00,
2013-07-20 20:43:00,70.3,67.6,29.89,NW,306,0.0,1.0,91,0.00,,,0.43,VWS V14.01,2013-07-21 00:43:00,
2013-07-20 20:48:00,70.2,67.4,29.90,NW,306,0.0,1.0,91,0.00,,,0.43,VWS V14.01,2013-07-21 00:48:00,
2013-07-20 20:53:00,70.1,67.4,29.89,NW,306,0.0,1.0,91,0.00,,,0.43,VWS V14.01,2013-07-21 00:53:00,
2013-07-20 20:58:00,70.1,67.4,29.90,NW,306,0.0,1.0,91,0.00,,,0.43,VWS V14.01,2013-07-21 00:58:00,
2013-07-20 21:03:00,70.0,67.3,29.90,SSE,162,0.0,2.0,91,0.00,,,0.43,VWS V14.01,2013-07-21 01:03:00,
2013-07-20 21:08:00,70.0,67.6,29.90,SSE,162,0.0,2.0,92,0.00,,,0.43,VWS V14.01,2013-07-21 01:08:00,
2013-07-20 21:13:00,69.9,67.5,29.90,SSE,162,0.0,2.0,92,0.00,,,0.43,VWS V14.01,2013-07-21 01:13:00,
2013-07-20 21:18:00,69.9,67.5,29.90,SSE,165,2.0,3.0,92,0.00,,,0.43,VWS V14.01,2013-07-21 01:18:00,
2013-07-20 21:24:00,69.9,67.5,29.91,SSE,165,0.0,3.0,92,0.00,,,0.43,VWS V14.01,2013-07-21 01:24:00,
2013-07-20 21:29:00,69.9,67.5,29.91,SSE,165,0.0,0.0,92,0.00,,,0.43,VWS V14.01,2013-07-21 01:29:00,
2013-07-20 21:34:00,69.9,67.5,29.91,SSE,165,0.0,1.0,92,0.00,,,0.43,VWS V14.01,2013-07-21 01:34:00,
2013-07-20 21:39:00,69.9,67.5,29.91,SSE,165,0.0,1.0,92,0.00,,,0.43,VWS V14.01,2013-07-21 01:39:00,
2013-07-20 21:45:00,69.9,67.5,29.91,SSE,165,0.0,2.0,92,0.00,,,0.43,VWS V14.01,2013-07-21 01:45:00,
2013-07-20 21:50:00,69.9,67.5,29.91,SSE,165,0.0,3.0,92,0.00,,,0.43,VWS V14.01,2013-07-21 01:50:00,
2013-07-20 21:55:00,69.8,67.4,29.91,SSE,165,0.0,3.0,92,0.00,,,0.43,VWS V14.01,2013-07-21 01:55:00,
2013-07-20 22:01:00,69.8,67.7,29.91,SSE,165,0.0,2.0,93,0.00,,,0.43,VWS V14.01,2013-07-21 02:01:00,
2013-07-20 22:06:00,69.8,67.7,29.91,SSE,165,0.0,2.0,93,0.00,,,0.43,VWS V14.01,2013-07-21 02:06:00,
2013-07-20 22:11:00,69.7,67.6,29.91,SSE,165,2.0,3.0,93,0.00,,,0.43,VWS V14.01,2013-07-21 02:11:00,
2013-07-20 22:16:00,69.8,67.7,29.91,SSE,165,0.0,3.0,93,0.00,,,0.43,VWS V14.01,2013-07-21 02:16:00,
2013-07-20 22:21:00,69.8,67.7,29.91,SSE,165,0.0,3.0,93,0.00,,,0.43,VWS V14.01,2013-07-21 02:21:00,
2013-07-20 22:26:00,69.7,67.6,29.92,SSE,165,0.0,3.0,93,0.00,,,0.43,VWS V14.01,2013-07-21 02:26:00,
2013-07-20 22:31:00,69.6,67.5,29.92,SSE,165,0.0,0.0,93,0.00,,,0.43,VWS V14.01,2013-07-21 02:31:00,
2013-07-20 22:36:00,69.5,67.4,29.92,SSE,165,0.0,0.0,93,0.00,,,0.43,VWS V14.01,2013-07-21 02:36:00,
2013-07-20 22:42:00,69.5,67.4,29.92,SSE,165,0.0,0.0,93,0.00,,,0.43,VWS V14.01,2013-07-21 02:42:00,
2013-07-20 22:47:00,69.4,67.3,29.92,SSE,165,2.0,4.0,93,0.00,,,0.43,VWS V14.01,2013-07-21 02:47:00,
2013-07-20 22:52:00,69.3,67.2,29.92,SSE,165,0.0,4.0,93,0.00,,,0.43,VWS V14.01,2013-07-21 02:52:00,
2013-07-20 22:57:00,69.2,67.1,29.92,SSE,165,0.0,4.0,93,0.00,,,0.43,VWS V14.01,2013-07-21 02:57:00,
2013-07-20 23:02:00,69.1,67.0,29.93,SSE,165,0.0,0.0,93,0.00,,,0.43,VWS V14.01,2013-07-21 03:02:00,
2013-07-20 23:07:00,69.0,66.9,29.93,SSE,165,0.0,0.0,93,0.00,,,0.43,VWS V14.01,2013-07-21 03:07:00,
2013-07-20 23:13:00,68.9,66.8,29.93,SSE,165,0.0,0.0,93,0.00,,,0.43,VWS V14.01,2013-07-21 03:13:00,
2013-07-20 23:18:00,68.9,66.8,29.92,SSE,165,0.0,0.0,93,0.00,,,0.43,VWS V14.01,2013-07-21 03:18:00,
2013-07-20 23:23:00,68.7,66.6,29.93,SSE,165,0.0,1.0,93,0.00,,,0.43,VWS V14.01,2013-07-21 03:23:00,
2013-07-20 23:28:00,68.7,66.6,29.93,SSE,165,0.0,1.0,93,0.00,,,0.43,VWS V14.01,2013-07-21 03:28:00,
2013-07-20 23:33:00,68.7,66.9,29.93,SSE,165,0.0,2.0,94,0.00,,,0.43,VWS V14.01,2013-07-21 03:33:00,
2013-07-20 23:38:00,68.7,66.9,29.93,SSE,165,0.0,3.0,94,0.00,,,0.43,VWS V14.01,2013-07-21 03:38:00,
2013-07-20 23:43:00,68.8,67.0,29.93,SSE,165,0.0,3.0,94,0.00,,,0.43,VWS V14.01,2013-07-21 03:43:00,
2013-07-20 23:48:00,68.8,67.0,29.94,SSE,165,0.0,3.0,94,0.00,,,0.43,VWS V14.01,2013-07-21 03:48:00,
2013-07-20 23:53:00,68.8,67.0,29.93,SSE,165,0.0,3.0,94,0.00,,,0.43,VWS V14.01,2013-07-21 03:53:00,
2013-07-20 23:58:00,68.8,67.0,29.93,SSE,165,0.0,3.0,94,0.00,,,0.43,VWS V14.01,2013-07-21 03:58:00,